Time;durP1;ratioP1;P1;durP2;ratioP2;P2;SDS_P1;SDS_P2;PMS_P1;PMS_P2;Temp;Humidity;BMP_temperature;BMP_pressure;BME280_temperature;BME280_humidity;BME280_pressure;Samples;Min_cycle;Max_cycle;Signal;HPM_P1;HPM_P2
2021/01/07 00:00:10;;;;;;;14.63;10.68;;;;;;;0.50;98.05;101399.97;5163845;28;20039;-71
2021/01/07 00:02:41;;;;;;;15.73;10.82;;;;;;;0.46;98.22;101394.09;5157130;28;20074;-71
2021/01/07 00:05:13;;;;;;;14.90;10.98;;;;;;;0.43;98.47;101384.72;5157778;28;20102;-70
2021/01/07 00:07:44;;;;;;;16.00;11.20;;;;;;;0.38;98.37;101383.16;5158823;28;20019;-70
2021/01/07 00:10:16;;;;;;;17.15;10.60;;;;;;;0.40;98.49;101389.97;5159145;28;20042;-71
2021/01/07 00:12:47;;;;;;;15.43;10.52;;;;;;;0.38;98.24;101384.03;5155399;28;20043;-70
2021/01/07 00:15:18;;;;;;;14.93;10.50;;;;;;;0.37;98.46;101390.06;5157479;28;20023;-71
2021/01/07 00:17:49;;;;;;;15.30;10.45;;;;;;;0.35;99.33;101381.56;5158085;28;20027;-70
2021/01/07 00:20:21;;;;;;;16.13;9.85;;;;;;;0.36;99.12;101384.97;5157339;28;20027;-71
2021/01/07 00:22:52;;;;;;;20.20;10.95;;;;;;;0.34;99.02;101382.47;5156808;28;20031;-70
2021/01/07 00:25:23;;;;;;;17.05;10.90;;;;;;;0.30;99.06;101375.69;5157446;28;20688;-71
2021/01/07 00:27:55;;;;;;;15.20;10.30;;;;;;;0.32;99.40;101376.50;5158893;28;20496;-70
2021/01/07 00:30:26;;;;;;;15.18;10.50;;;;;;;0.33;99.49;101382.50;5161761;28;20031;-70
2021/01/07 00:32:57;;;;;;;14.40;10.27;;;;;;;0.32;99.42;101379.06;5156695;28;20027;-71
2021/01/07 00:35:28;;;;;;;13.90;10.18;;;;;;;0.33;99.60;101379.91;5144877;29;20460;-70
2021/01/07 00:38:00;;;;;;;19.00;10.65;;;;;;;0.30;100.00;101367.13;5156618;29;20031;-71
2021/01/07 00:40:35;;;;;;;12.10;9.93;;;;;;;0.36;100.00;101377.25;5160000;29;20031;-70
2021/01/07 00:43:06;;;;;;;14.10;9.02;;;;;;;0.34;100.00;101371.28;5149655;29;20037;-70
2021/01/07 00:45:38;;;;;;;15.38;10.35;;;;;;;0.32;100.00;101371.34;5151811;28;20039;-71
2021/01/07 00:48:09;;;;;;;17.13;9.80;;;;;;;0.31;100.00;101371.41;5152793;29;20027;-70
2021/01/07 00:50:40;;;;;;;14.55;10.05;;;;;;;0.36;100.00;101369.50;5151304;29;20110;-70
2021/01/07 00:53:12;;;;;;;17.92;9.55;;;;;;;0.35;100.00;101366.09;5157414;29;20038;-70
2021/01/07 00:55:43;;;;;;;14.60;10.10;;;;;;;0.32;100.00;101361.03;5158705;28;20035;-70
2021/01/07 00:58:14;;;;;;;14.50;9.68;;;;;;;0.29;100.00;101357.72;5147478;29;20023;-71
2021/01/07 01:00:45;;;;;;;16.98;10.05;;;;;;;0.29;100.00;101363.72;5151054;29;20106;-70
2021/01/07 01:03:17;;;;;;;14.02;9.35;;;;;;;0.27;100.00;101359.53;5158864;28;20027;-71
2021/01/07 01:05:48;;;;;;;14.57;9.23;;;;;;;0.27;100.00;101362.09;5154280;29;20039;-70
2021/01/07 01:08:20;;;;;;;14.52;10.10;;;;;;;0.29;100.00;101360.28;5158084;29;20027;-71
2021/01/07 01:10:51;;;;;;;13.20;9.75;;;;;;;0.26;100.00;101350.91;5152997;28;20031;-71
2021/01/07 01:13:22;;;;;;;15.93;9.95;;;;;;;0.24;100.00;101358.72;5159025;29;20813;-70
2021/01/07 01:15:54;;;;;;;16.48;9.88;;;;;;;0.30;100.00;101361.97;5150281;29;20504;-70
2021/01/07 01:18:25;;;;;;;16.40;10.57;;;;;;;0.26;100.00;101355.25;5122092;29;20476;-70
2021/01/07 01:20:56;;;;;;;14.07;9.18;;;;;;;0.24;100.00;101356.13;5157869;29;20027;-71
2021/01/07 01:23:28;;;;;;;16.10;9.73;;;;;;;0.23;100.00;101356.19;5157861;29;20063;-70
2021/01/07 01:25:59;;;;;;;12.55;9.50;;;;;;;0.23;100.00;101354.47;5151029;29;20031;-71
2021/01/07 01:28:30;;;;;;;12.88;8.77;;;;;;;0.26;100.00;101356.06;5158238;29;20058;-70
2021/01/07 01:31:02;;;;;;;13.27;9.30;;;;;;;0.23;100.00;101356.19;5156960;29;20031;-70
2021/01/07 01:33:34;;;;;;;14.15;9.10;;;;;;;0.13;100.00;101345.34;5159162;29;20027;-71
2021/01/07 01:36:06;;;;;;;13.10;9.23;;;;;;;0.23;100.00;101351.06;5156461;29;20512;-70
2021/01/07 01:38:37;;;;;;;11.03;8.50;;;;;;;0.20;100.00;101353.72;5157340;28;20031;-70
2021/01/07 01:41:09;;;;;;;14.73;8.45;;;;;;;0.23;100.00;101353.63;5153383;28;20400;-70
2021/01/07 01:43:40;;;;;;;12.25;8.30;;;;;;;0.19;100.00;101355.47;5155992;29;20030;-70
2021/01/07 01:46:12;;;;;;;14.38;8.98;;;;;;;0.09;100.00;101338.63;5148971;29;20094;-70
2021/01/07 01:48:43;;;;;;;13.63;8.80;;;;;;;0.17;100.00;101351.25;5156606;29;20028;-70
2021/01/07 01:51:15;;;;;;;13.38;8.52;;;;;;;0.20;100.00;101356.31;5148540;29;20031;-70
2021/01/07 01:53:46;;;;;;;14.02;8.43;;;;;;;0.16;100.00;101347.81;5160964;28;20023;-70
2021/01/07 01:56:18;;;;;;;13.40;8.95;;;;;;;0.17;100.00;101349.50;5164568;28;20038;-71
2021/01/07 01:58:50;;;;;;;11.90;8.05;;;;;;;0.18;100.00;101352.91;5157572;29;20035;-71
2021/01/07 02:01:22;;;;;;;13.07;8.32;;;;;;;0.17;100.00;101348.66;5151091;29;20051;-71
2021/01/07 02:03:54;;;;;;;12.48;8.02;;;;;;;0.19;100.00;101349.44;5155714;29;20038;-70
2021/01/07 02:06:27;;;;;;;11.73;7.85;;;;;;;0.10;100.00;101330.00;5157468;29;20340;-71
2021/01/07 02:08:59;;;;;;;11.90;7.78;;;;;;;0.18;100.00;101343.44;5157158;29;20027;-70
2021/01/07 02:11:30;;;;;;;10.68;7.63;;;;;;;0.19;100.00;101339.13;5150666;28;20042;-70
2021/01/07 02:14:02;;;;;;;10.98;7.78;;;;;;;0.22;100.00;101345.03;5157181;29;20073;-71
2021/01/07 02:16:33;;;;;;;11.68;8.15;;;;;;;0.22;100.00;101345.03;5144267;29;20023;-71
2021/01/07 02:19:04;;;;;;;13.13;7.95;;;;;;;0.21;100.00;101356.25;5142156;29;20038;-70
2021/01/07 02:21:37;;;;;;;12.18;8.20;;;;;;;0.20;100.00;101346.00;5154047;28;20031;-70
2021/01/07 02:24:10;;;;;;;15.18;8.75;;;;;;;0.21;100.00;101343.34;5152698;28;20039;-70
2021/01/07 02:26:43;;;;;;;12.35;8.25;;;;;;;0.18;100.00;101342.63;5151416;29;20097;-70
2021/01/07 02:29:14;;;;;;;11.13;7.68;;;;;;;0.19;100.00;101355.47;5144692;29;20054;-70
2021/01/07 02:31:46;;;;;;;12.65;7.55;;;;;;;0.20;100.00;101343.41;5155148;29;20043;-70
2021/01/07 02:34:17;;;;;;;11.13;7.95;;;;;;;0.22;100.00;101350.19;5157913;29;20023;-70
2021/01/07 02:36:48;;;;;;;15.48;7.93;;;;;;;0.22;100.00;101336.47;5156407;29;20043;-71
2021/01/07 02:39:19;;;;;;;11.45;7.45;;;;;;;0.21;100.00;101337.38;5153760;28;20030;-70
2021/01/07 02:41:52;;;;;;;13.60;8.07;;;;;;;0.22;100.00;101333.88;5156119;29;20118;-70
2021/01/07 02:44:24;;;;;;;10.98;7.43;;;;;;;0.24;100.00;101334.69;5158306;28;20389;-70
2021/01/07 02:46:55;;;;;;;10.52;7.95;;;;;;;0.20;100.00;101339.09;5152784;29;20035;-70
2021/01/07 02:49:26;;;;;;;11.10;7.38;;;;;;;0.22;100.00;101333.88;5153493;28;20043;-70
2021/01/07 02:51:58;;;;;;;12.15;7.90;;;;;;;0.22;100.00;101339.88;5159251;29;20539;-70
2021/01/07 02:54:29;;;;;;;12.30;8.48;;;;;;;0.23;100.00;101341.59;5167933;28;20496;-70
2021/01/07 02:57:02;;;;;;;10.63;7.43;;;;;;;0.22;100.00;101337.31;5164979;28;20203;-70
2021/01/07 02:59:35;;;;;;;11.47;7.90;;;;;;;0.23;100.00;101336.44;5159279;29;20034;-70
2021/01/07 03:02:06;;;;;;;11.20;8.73;;;;;;;0.24;100.00;101329.53;5157096;28;20390;-70
2021/01/07 03:04:38;;;;;;;11.45;7.85;;;;;;;0.24;100.00;101338.09;5158245;28;20478;-71
2021/01/07 03:07:09;;;;;;;12.93;8.88;;;;;;;0.26;100.00;101332.88;5159886;29;20104;-70
2021/01/07 03:09:43;;;;;;;12.80;8.73;;;;;;;0.24;100.00;101326.97;5161076;29;20027;-71
2021/01/07 03:12:16;;;;;;;12.95;9.32;;;;;;;0.28;100.00;101332.84;5148456;28;20031;-70
2021/01/07 03:14:48;;;;;;;16.65;9.18;;;;;;;0.28;100.00;101331.09;5153151;29;20122;-71
2021/01/07 03:17:19;;;;;;;16.88;9.75;;;;;;;0.29;100.00;101324.22;5158807;29;20102;-70
2021/01/07 03:19:50;;;;;;;12.50;8.70;;;;;;;0.28;100.00;101328.53;5153002;28;20286;-70
2021/01/07 03:22:21;;;;;;;14.82;9.20;;;;;;;0.28;100.00;101327.69;5158421;28;20023;-71
2021/01/07 03:24:53;;;;;;;12.70;9.45;;;;;;;0.30;100.00;101324.16;5160261;29;20027;-70
2021/01/07 03:27:24;;;;;;;10.60;8.45;;;;;;;0.32;100.00;101329.28;5156706;29;20548;-70
2021/01/07 03:29:55;;;;;;;10.70;8.52;;;;;;;0.32;100.00;101319.81;5150223;29;20077;-71
2021/01/07 03:32:27;;;;;;;14.65;8.88;;;;;;;0.33;100.00;101312.91;5148962;29;20035;-70
2021/01/07 03:34:58;;;;;;;11.20;8.38;;;;;;;0.35;100.00;101324.03;5151158;29;20054;-70
2021/01/07 03:37:29;;;;;;;12.10;8.25;;;;;;;0.37;100.00;101312.75;5158384;29;20027;-71
2021/01/07 03:40:01;;;;;;;10.80;8.15;;;;;;;0.36;100.00;101312.81;5160569;29;20027;-71
2021/01/07 03:42:32;;;;;;;10.80;8.00;;;;;;;0.38;100.00;101311.00;5154334;29;20485;-70
2021/01/07 03:45:04;;;;;;;11.63;8.18;;;;;;;0.39;100.00;101310.13;5154538;28;20042;-70
2021/01/07 03:47:35;;;;;;;12.38;8.05;;;;;;;0.39;100.00;101305.81;5156025;29;20032;-71
2021/01/07 03:50:07;;;;;;;10.38;7.28;;;;;;;0.42;100.00;101310.03;5151409;28;20078;-70
2021/01/07 03:52:38;;;;;;;11.98;7.53;;;;;;;0.44;100.00;101310.78;5159529;29;20027;-71
2021/01/07 03:55:10;;;;;;;15.30;8.15;;;;;;;0.44;100.00;101308.22;5155492;29;20050;-71
2021/01/07 03:57:41;;;;;;;9.70;7.43;;;;;;;0.42;100.00;101305.72;5159958;29;20039;-71
2021/01/07 04:00:13;;;;;;;8.63;6.85;;;;;;;0.42;100.00;101305.72;5159762;29;20051;-71
2021/01/07 04:02:44;;;;;;;9.43;7.40;;;;;;;0.43;100.00;101306.53;5158901;28;20077;-71
2021/01/07 04:05:16;;;;;;;8.15;6.72;;;;;;;0.43;100.00;101299.66;5140990;29;20032;-70
2021/01/07 04:07:47;;;;;;;9.95;7.53;;;;;;;0.43;100.00;101302.22;5156199;28;20035;-70
2021/01/07 04:10:18;;;;;;;11.80;8.88;;;;;;;0.39;100.00;101298.06;5153590;29;20023;-70
2021/01/07 04:12:50;;;;;;;11.85;7.88;;;;;;;0.41;100.00;101295.44;5160391;28;20492;-70
2021/01/07 04:15:21;;;;;;;8.50;7.38;;;;;;;0.39;100.00;101281.78;5147873;29;20055;-70
2021/01/07 04:17:52;;;;;;;10.68;7.85;;;;;;;0.43;100.00;101291.06;5146225;28;20034;-70
2021/01/07 04:20:24;;;;;;;10.52;7.55;;;;;;;0.43;100.00;101288.50;5157257;29;20027;-70
2021/01/07 04:22:55;;;;;;;12.70;8.20;;;;;;;0.42;100.00;101284.25;5152591;29;20027;-70
2021/01/07 04:25:26;;;;;;;11.93;8.38;;;;;;;0.41;100.00;101287.69;5157276;29;20027;-70
2021/01/07 04:27:57;;;;;;;10.18;8.10;;;;;;;0.42;100.00;101287.66;5160060;28;20031;-72
2021/01/07 04:30:29;;;;;;;13.10;7.55;;;;;;;0.41;100.00;101288.53;5157907;29;20019;-71
2021/01/07 04:33:01;;;;;;;8.82;7.30;;;;;;;0.43;100.00;101285.94;5159452;29;20038;-70
2021/01/07 04:35:32;;;;;;;14.50;7.82;;;;;;;0.43;100.00;101285.94;5155364;29;20020;-71
2021/01/07 04:38:04;;;;;;;11.95;7.30;;;;;;;0.43;100.00;101286.75;5149821;29;20027;-71
2021/01/07 04:40:35;;;;;;;11.02;6.85;;;;;;;0.42;100.00;101279.09;5157626;29;20034;-70
2021/01/07 04:43:06;;;;;;;9.70;7.38;;;;;;;0.39;100.00;101272.31;5152882;29;20031;-70
2021/01/07 04:45:37;;;;;;;11.57;7.00;;;;;;;0.38;100.00;101272.34;5158030;29;20370;-70
2021/01/07 04:48:09;;;;;;;9.77;7.75;;;;;;;0.45;100.00;101276.38;5156755;29;20031;-71
2021/01/07 04:50:40;;;;;;;11.23;8.02;;;;;;;0.46;100.00;101276.34;5158311;29;20079;-70
2021/01/07 04:53:12;;;;;;;15.48;9.70;;;;;;;0.38;100.00;101254.28;5158281;28;20031;-70
2021/01/07 04:55:43;;;;;;;15.75;8.90;;;;;;;0.51;100.00;101272.75;5157236;29;20485;-70
2021/01/07 04:58:14;;;;;;;11.80;9.55;;;;;;;0.51;100.00;101272.75;5139910;29;20040;-70
2021/01/07 05:00:46;;;;;;;11.50;9.48;;;;;;;0.52;100.00;101271.84;5153328;28;20090;-71
2021/01/07 05:03:21;;;;;;;12.02;9.93;;;;;;;0.46;100.00;101258.31;5155716;29;20031;-70
2021/01/07 05:05:52;;;;;;;10.77;9.43;;;;;;;0.54;100.00;101265.75;5152153;29;20039;-70
2021/01/07 05:08:24;;;;;;;12.52;10.25;;;;;;;0.54;100.00;101272.66;5155660;28;20366;-70
2021/01/07 05:10:56;;;;;;;12.25;10.50;;;;;;;0.54;100.00;101265.75;5158812;29;20046;-71
2021/01/07 05:13:28;;;;;;;12.70;10.80;;;;;;;0.54;100.00;101265.75;5156817;28;20045;-71
2021/01/07 05:15:59;;;;;;;13.23;10.45;;;;;;;0.59;100.00;101269.00;5149872;28;20023;-70
2021/01/07 05:18:30;;;;;;;14.25;10.40;;;;;;;0.60;100.00;101269.84;5156637;29;20063;-71
2021/01/07 05:21:02;;;;;;;14.98;10.82;;;;;;;0.54;100.00;101263.19;5159026;29;20086;-70
2021/01/07 05:23:34;;;;;;;13.32;10.98;;;;;;;0.64;100.00;101268.81;5163863;28;20109;-70
2021/01/07 05:26:08;;;;;;;15.40;11.55;;;;;;;0.64;100.00;101269.66;5156301;28;20553;-70
2021/01/07 05:28:39;;;;;;;13.43;11.65;;;;;;;0.65;100.00;101263.63;5157166;28;20086;-70
2021/01/07 05:31:10;;;;;;;15.95;12.30;;;;;;;0.64;100.00;101255.94;5151868;29;20118;-71
2021/01/07 05:33:42;;;;;;;17.08;13.38;;;;;;;0.62;100.00;101255.16;5156577;29;20477;-70
2021/01/07 05:36:30;;;;;;;19.65;15.32;;;;;;;0.67;100.00;101248.94;5147023;29;20031;-70
2021/01/07 05:39:05;;;;;;;17.25;14.43;;;;;;;0.68;100.00;101260.94;5147631;29;20039;-70
2021/01/07 05:41:37;;;;;;;18.80;14.85;;;;;;;0.62;100.00;101237.13;5157531;28;20070;-71
2021/01/07 05:44:13;;;;;;;18.98;15.10;;;;;;;0.70;100.00;101245.41;5157573;29;20104;-71
2021/01/07 05:46:44;;;;;;;23.90;17.83;;;;;;;0.67;100.00;101243.78;5156534;29;20289;-70
2021/01/07 05:49:20;;;;;;;20.98;16.45;;;;;;;0.68;100.00;101245.47;5157513;28;20023;-70
2021/01/07 05:51:52;;;;;;;21.85;16.15;;;;;;;0.70;100.00;101243.66;5158089;29;20035;-70
2021/01/07 05:54:24;;;;;;;22.92;16.08;;;;;;;0.67;100.00;101233.47;5157120;29;20019;-70
2021/01/07 05:56:57;;;;;;;20.48;15.32;;;;;;;0.69;100.00;101239.41;5156785;29;20058;-71
2021/01/07 05:59:32;;;;;;;18.65;15.50;;;;;;;0.71;100.00;101239.34;5144753;29;20186;-70
2021/01/07 06:02:04;;;;;;;22.08;16.88;;;;;;;0.65;100.00;101230.09;5154799;29;20051;-73
2021/01/07 06:04:39;;;;;;;21.88;16.45;;;;;;;0.72;100.00;101235.88;5156197;29;20066;-70
2021/01/07 06:07:11;;;;;;;20.92;15.80;;;;;;;0.68;100.00;101235.16;5156534;28;20089;-71
2021/01/07 06:09:46;;;;;;;20.30;15.25;;;;;;;0.72;100.00;101233.31;5144507;29;20027;-70
2021/01/07 06:12:17;;;;;;;19.80;15.23;;;;;;;0.73;100.00;101243.56;5156519;29;20023;-70
2021/01/07 06:14:48;;;;;;;20.10;14.48;;;;;;;0.72;100.00;101241.03;5156396;28;20034;-70
2021/01/07 06:17:23;;;;;;;18.25;14.18;;;;;;;0.73;100.00;101238.41;5156153;29;20026;-71
2021/01/07 06:19:54;;;;;;;20.20;14.82;;;;;;;0.75;100.00;101240.06;5156730;29;20051;-71
2021/01/07 06:22:26;;;;;;;19.00;14.05;;;;;;;0.73;100.00;101242.72;5157123;29;20031;-71
2021/01/07 06:24:57;;;;;;;20.55;14.40;;;;;;;0.75;100.00;101240.91;5155781;29;20079;-71
2021/01/07 06:27:31;;;;;;;20.60;14.30;;;;;;;0.72;100.00;101228.16;5158076;28;20053;-71
2021/01/07 06:30:02;;;;;;;22.02;15.00;;;;;;;0.77;100.00;101238.28;5158270;29;20473;-70
2021/01/07 06:32:34;;;;;;;19.50;14.97;;;;;;;0.76;100.00;101237.44;5152541;29;20031;-71
2021/01/07 06:35:10;;;;;;;21.58;15.70;;;;;;;0.71;100.00;101235.03;5153295;29;20055;-71
2021/01/07 06:37:47;;;;;;;25.58;16.45;;;;;;;0.71;100.00;101235.03;5155235;29;20027;-71
2021/01/07 06:40:22;;;;;;;22.75;16.35;;;;;;;0.69;100.00;101223.94;5147419;29;20067;-70
2021/01/07 06:42:54;;;;;;;23.45;16.50;;;;;;;0.79;100.00;101242.47;5156002;29;20030;-71
2021/01/07 06:45:26;;;;;;;26.33;17.90;;;;;;;0.81;100.00;101250.16;5157148;29;20512;-71
2021/01/07 06:47:57;;;;;;;24.38;18.27;;;;;;;0.84;100.00;101245.72;5144611;29;20027;-70
2021/01/07 06:50:34;;;;;;;25.50;18.42;;;;;;;0.79;100.00;101232.16;5158036;29;20400;-70
2021/01/07 06:53:06;;;;;;;27.35;19.35;;;;;;;0.78;100.00;101240.78;5156099;28;20051;-71
2021/01/07 06:55:37;;;;;;;26.85;20.38;;;;;;;0.85;100.00;101249.16;5156916;29;20586;-71
2021/01/07 06:58:09;;;;;;;28.77;20.45;;;;;;;0.85;100.00;101249.97;5162788;28;20057;-71
2021/01/07 07:00:42;;;;;;;28.77;19.88;;;;;;;0.86;100.00;101246.50;5156279;28;20057;-70
2021/01/07 07:03:18;;;;;;;27.75;19.67;;;;;;;0.89;100.00;101245.56;5156328;29;20096;-71
2021/01/07 07:05:54;;;;;;;29.33;20.80;;;;;;;0.87;100.00;101242.19;5154428;29;20058;-70
2021/01/07 07:08:37;;;;;;;25.33;18.65;;;;;;;0.91;100.00;101244.59;5149414;29;20530;-71
2021/01/07 07:11:11;;;;;;;22.20;17.10;;;;;;;0.88;100.00;101241.31;5153042;29;20631;-70
2021/01/07 07:13:43;;;;;;;24.17;17.80;;;;;;;0.91;100.00;101251.47;5155368;28;20027;-71
2021/01/07 07:16:15;;;;;;;22.02;16.42;;;;;;;0.91;100.00;101243.72;5154430;28;20038;-70
2021/01/07 07:18:46;;;;;;;25.25;16.27;;;;;;;0.91;100.00;101247.19;5149079;29;20062;-71
2021/01/07 07:21:24;;;;;;;22.83;16.85;;;;;;;0.95;100.00;101245.31;5148662;29;20106;-70
2021/01/07 07:24:07;;;;;;;19.88;15.10;;;;;;;0.99;100.00;101243.47;5146598;29;20568;-75
2021/01/07 07:26:42;;;;;;;19.85;15.23;;;;;;;0.96;100.00;101239.25;5147763;29;20104;-71
2021/01/07 07:29:13;;;;;;;18.13;14.75;;;;;;;0.95;100.00;101243.59;5147873;29;20032;-71
2021/01/07 07:31:46;;;;;;;18.35;14.18;;;;;;;0.94;100.00;101239.31;5148301;29;20094;-70
2021/01/07 07:34:31;;;;;;;19.30;14.32;;;;;;;1.01;100.00;101247.66;5150980;28;20094;-70
2021/01/07 07:37:17;;;;;;;18.70;14.23;;;;;;;1.02;100.00;101248.50;5146372;28;20034;-70
2021/01/07 07:39:49;;;;;;;18.80;14.30;;;;;;;1.00;100.00;101248.56;5146146;29;20049;-70
2021/01/07 07:42:21;;;;;;;18.50;14.80;;;;;;;1.02;100.00;101251.91;5157796;28;20441;-70
2021/01/07 07:44:52;;;;;;;17.83;12.77;;;;;;;1.02;100.00;101253.66;5154417;28;20086;-71
2021/01/07 07:47:23;;;;;;;16.05;13.07;;;;;;;1.01;100.00;101246.81;5154843;28;20027;-70
2021/01/07 07:49:55;;;;;;;17.13;13.25;;;;;;;1.04;100.00;101260.44;5153406;29;20031;-71
2021/01/07 07:52:27;;;;;;;17.30;12.98;;;;;;;1.04;100.00;101260.44;5153497;28;20030;-71
2021/01/07 07:54:59;;;;;;;17.02;12.68;;;;;;;1.00;100.00;101251.13;5154239;29;20108;-70
2021/01/07 07:57:43;;;;;;;15.48;11.65;;;;;;;1.08;100.00;101263.75;5155452;29;20034;-70
2021/01/07 08:00:17;;;;;;;15.93;12.30;;;;;;;1.08;100.00;101258.59;5154562;29;20413;-71
2021/01/07 08:02:50;;;;;;;12.73;10.75;;;;;;;1.12;100.00;101271.31;5150693;28;20292;-70
2021/01/07 08:05:29;;;;;;;13.88;11.65;;;;;;;1.13;100.00;101269.56;5143852;28;20058;-70
2021/01/07 08:08:00;;;;;;;14.90;10.63;;;;;;;1.10;100.00;101257.63;5150659;29;20031;-71
2021/01/07 08:10:32;;;;;;;13.45;11.00;;;;;;;1.11;100.00;101268.78;5151917;29;20093;-70
2021/01/07 08:13:06;;;;;;;15.23;11.93;;;;;;;1.12;100.00;101267.88;5153223;28;20031;-70
2021/01/07 08:15:38;;;;;;;13.85;11.52;;;;;;;1.11;100.00;101264.47;5152895;28;20031;-70
2021/01/07 08:18:17;;;;;;;13.18;10.73;;;;;;;1.12;100.00;101262.72;5152756;28;20389;-71
2021/01/07 08:20:51;;;;;;;13.90;11.15;;;;;;;1.13;100.00;101269.56;5152984;29;20579;-71
2021/01/07 08:23:23;;;;;;;15.43;12.25;;;;;;;1.15;100.00;101270.34;5155191;29;20045;-70
2021/01/07 08:25:54;;;;;;;15.70;12.50;;;;;;;1.19;100.00;101272.75;5152459;28;20031;-71
2021/01/07 08:28:33;;;;;;;16.63;13.07;;;;;;;1.23;100.00;101278.63;5153551;29;20081;-71
2021/01/07 08:31:10;;;;;;;16.17;11.95;;;;;;;1.19;100.00;101267.59;5149967;28;20506;-70
2021/01/07 08:33:42;;;;;;;14.80;12.27;;;;;;;1.22;100.00;101279.53;5151382;29;20042;-70
2021/01/07 08:36:15;;;;;;;15.07;11.65;;;;;;;1.23;100.00;101278.63;5146657;28;20027;-70
2021/01/07 08:38:51;;;;;;;16.10;12.80;;;;;;;1.27;100.00;101284.53;5148264;28;20114;-70
2021/01/07 08:41:23;;;;;;;15.40;12.10;;;;;;;1.29;100.00;101282.69;5150094;28;20396;-70
2021/01/07 08:43:56;;;;;;;16.08;13.23;;;;;;;1.28;100.00;101276.69;5149900;28;20047;-70
2021/01/07 08:46:36;;;;;;;18.48;14.38;;;;;;;1.29;100.00;101277.53;5152491;29;20030;-70
2021/01/07 08:49:09;;;;;;;20.73;15.27;;;;;;;1.30;100.00;101274.91;5149969;28;20544;-70
2021/01/07 08:51:42;;;;;;;20.55;16.98;;;;;;;1.31;100.00;101279.16;5147023;29;20568;-70
2021/01/07 08:54:15;;;;;;;20.50;17.02;;;;;;;1.32;100.00;101274.84;5151430;29;20562;-70
2021/01/07 08:56:49;;;;;;;19.95;16.52;;;;;;;1.33;100.00;101274.81;5152949;28;20031;-70
2021/01/07 08:59:29;;;;;;;;;;;;;;;1.41;100.00;101277.91;5152672;29;21084;-70
2021/01/07 09:02:06;;;;;;;20.58;17.05;;;;;;;1.39;100.00;101278.88;5148695;29;19922;-70
2021/01/07 09:04:40;;;;;;;23.80;18.27;;;;;;;1.38;100.00;101277.19;5151152;28;20070;-70
2021/01/07 09:07:14;;;;;;;;;;;;;;;1.48;100.00;101280.22;5152332;28;20045;-70
2021/01/07 09:09:53;;;;;;;24.95;18.52;;;;;;;1.44;100.00;101270.06;5150144;29;19925;-70
2021/01/07 09:12:24;;;;;;;22.95;19.00;;;;;;;1.44;100.00;101269.22;5149832;28;20074;-70
2021/01/07 09:15:10;;;;;;;22.52;18.35;;;;;;;1.48;100.00;101270.78;5151990;29;20094;-70
2021/01/07 09:17:44;;;;;;;21.73;17.88;;;;;;;1.49;100.00;101269.88;5152857;28;20043;-70
2021/01/07 09:20:20;;;;;;;23.80;19.17;;;;;;;1.53;100.00;101275.75;5151456;29;20046;-70
2021/01/07 09:23:01;;;;;;;24.42;19.27;;;;;;;1.55;100.00;101269.59;5151562;28;20331;-70
2021/01/07 09:25:34;;;;;;;23.55;18.45;;;;;;;1.55;100.00;101277.34;5151516;28;20051;-70
2021/01/07 09:28:05;;;;;;;21.95;17.42;;;;;;;1.56;100.00;101279.03;5149380;28;20143;-70
2021/01/07 09:30:37;;;;;;;21.85;17.30;;;;;;;1.49;100.00;101264.69;5149560;28;20106;-70
2021/01/07 09:33:08;;;;;;;22.83;18.23;;;;;;;1.57;100.00;101266.97;5152886;29;20035;-71
2021/01/07 09:35:39;;;;;;;21.05;17.50;;;;;;;1.57;100.00;101275.56;5151134;29;20614;-70
2021/01/07 09:38:10;;;;;;;18.60;16.20;;;;;;;1.59;100.00;101268.59;5150306;28;20035;-70
2021/01/07 09:40:42;;;;;;;17.42;15.07;;;;;;;1.65;100.00;101265.75;5149514;28;20031;-70
2021/01/07 09:43:13;;;;;;;20.08;16.48;;;;;;;1.65;100.00;101270.06;5150720;28;20023;-70
2021/01/07 09:45:45;;;;;;;18.35;14.80;;;;;;;1.64;100.00;101258.91;5151323;28;20043;-70
2021/01/07 09:48:16;;;;;;;16.40;14.13;;;;;;;1.65;100.00;101270.06;5151316;28;20035;-70
2021/01/07 09:50:47;;;;;;;18.05;15.50;;;;;;;1.68;100.00;101264.78;5151305;29;20457;-71
2021/01/07 09:53:21;;;;;;;16.08;13.98;;;;;;;1.69;100.00;101272.47;5152410;28;20551;-70
2021/01/07 09:55:53;;;;;;;16.17;14.23;;;;;;;1.69;100.00;101272.47;5147932;28;20405;-70
2021/01/07 09:58:24;;;;;;;16.23;13.82;;;;;;;1.69;100.00;101267.31;5150398;28;20026;-71
2021/01/07 10:00:55;;;;;;;15.15;12.75;;;;;;;1.77;100.00;101271.31;5152346;29;20051;-70
2021/01/07 10:03:26;;;;;;;14.45;12.20;;;;;;;1.73;100.00;101274.94;5144228;28;20030;-71
2021/01/07 10:05:57;;;;;;;14.55;12.70;;;;;;;1.74;100.00;101266.28;5139271;28;20248;-70
2021/01/07 10:08:29;;;;;;;14.23;12.73;;;;;;;1.72;100.00;101260.34;5149506;28;20073;-70
2021/01/07 10:11:00;;;;;;;14.38;12.70;;;;;;;1.76;100.00;101251.56;5148387;28;20104;-69
2021/01/07 10:13:31;;;;;;;12.70;10.65;;;;;;;1.81;100.00;101265.13;5150232;28;20035;-69
2021/01/07 10:16:03;;;;;;;12.93;11.20;;;;;;;1.82;100.00;101261.63;5149175;28;20756;-70
2021/01/07 10:18:34;;;;;;;12.70;10.75;;;;;;;1.78;100.00;101247.16;5150277;28;20031;-70
2021/01/07 10:21:10;;;;;;;12.35;10.13;;;;;;;1.87;100.00;101263.13;5150530;29;20113;-70
2021/01/07 10:23:43;;;;;;;13.15;10.13;;;;;;;1.89;100.00;101256.13;5148585;29;20039;-72
2021/01/07 10:26:19;;;;;;;11.23;9.13;;;;;;;1.98;100.00;101259.25;5148286;28;20023;-73
2021/01/07 10:28:50;;;;;;;11.95;10.18;;;;;;;1.92;100.00;101248.25;5151052;29;20473;-73
2021/01/07 10:31:22;;;;;;;13.48;8.77;;;;;;;2.04;100.00;101253.81;5148732;28;20073;-73
2021/01/07 10:33:53;;;;;;;10.82;9.77;;;;;;;2.05;100.00;101252.94;5149161;29;20026;-73
2021/01/07 10:36:24;;;;;;;11.93;9.43;;;;;;;2.07;100.00;101259.69;5148880;28;20055;-73
2021/01/07 10:38:58;;;;;;;10.02;9.02;;;;;;;2.12;100.00;101247.44;5149333;28;20389;-73
2021/01/07 10:41:30;;;;;;;11.70;8.93;;;;;;;2.14;100.00;101247.34;5148562;29;20504;-70
2021/01/07 10:44:06;;;;;;;9.45;8.43;;;;;;;2.21;100.00;101253.09;5147172;28;20035;-70
2021/01/07 10:46:42;;;;;;;11.02;8.95;;;;;;;2.19;100.00;101247.97;5150399;29;20035;-70
2021/01/07 10:49:18;;;;;;;10.45;7.88;;;;;;;2.10;100.00;101236.31;5149682;29;20106;-70
2021/01/07 10:52:31;;;;;;;12.32;7.88;;;;;;;2.22;100.00;101249.59;5147468;29;20051;-70
2021/01/07 10:55:19;;;;;;;10.85;7.40;;;;;;;2.18;100.00;101243.72;5150190;29;20515;-70
2021/01/07 10:58:19;;;;;;;7.00;5.10;;;;;;;2.24;100.00;101242.63;5146950;28;20031;-71
2021/01/07 11:01:02;;;;;;;6.70;4.93;;;;;;;2.18;100.00;101241.13;5145428;29;20512;-71
2021/01/07 11:04:12;;;;;;;8.52;5.57;;;;;;;2.24;100.00;101243.47;5148223;28;20031;-71
2021/01/07 11:06:52;;;;;;;8.20;5.20;;;;;;;2.26;100.00;101245.97;5149018;29;20086;-71
2021/01/07 11:09:32;;;;;;;6.07;4.75;;;;;;;2.25;100.00;101236.56;5148348;28;20023;-70
2021/01/07 11:12:12;;;;;;;5.32;4.72;;;;;;;2.25;100.00;101229.63;5153464;28;20041;-71
2021/01/07 11:15:18;;;;;;;5.05;4.28;;;;;;;2.37;100.00;101228.25;5153418;29;20477;-70
2021/01/07 11:17:57;;;;;;;5.57;4.70;;;;;;;2.33;100.00;101234.47;5108908;29;20412;-70
2021/01/07 11:20:30;;;;;;;6.78;4.38;;;;;;;2.35;100.00;101227.47;5151209;28;20047;-70
2021/01/07 11:23:05;;;;;;;5.60;3.75;;;;;;;2.40;100.00;101221.19;5150793;28;20393;-70
2021/01/07 11:25:37;;;;;;;5.78;3.28;;;;;;;2.36;100.00;101219.66;5152641;29;20031;-71
2021/01/07 11:28:10;;;;;;;5.18;3.55;;;;;;;2.38;100.00;101219.56;5153617;28;20389;-70
2021/01/07 11:30:42;;;;;;;5.43;2.90;;;;;;;2.37;100.00;101218.75;5154032;29;20058;-70
2021/01/07 11:33:17;;;;;;;5.95;3.55;;;;;;;2.41;100.00;101222.88;5152676;28;20063;-70
2021/01/07 11:35:48;;;;;;;3.85;3.10;;;;;;;2.38;100.00;101220.41;5151957;28;20484;-71
2021/01/07 11:38:23;;;;;;;5.10;3.25;;;;;;;2.38;100.00;101209.22;5153553;28;20047;-70
2021/01/07 11:41:02;;;;;;;4.65;3.60;;;;;;;2.39;100.00;101214.34;5151119;28;20109;-71